This is the latest recevied weather packets stored in our database for station/object W7BL. If no packets are shown the sender has not sent any weather packets the latest 10 day(s).
| Time | Temp. | Humidity | Pressure | Rain* | Wind** | Luminosity | Snow |
|---|---|---|---|---|---|---|---|
| 1777972278 | 14.44° C | 55% | - | 0 mm | - | - | - |
| 1777971975 | 15° C | 54% | - | 0 mm | - | - | - |
| 1777971673 | 14.44° C | 56% | - | 0 mm | - | - | - |
| 1777971370 | 13.89° C | 58% | - | 0 mm | - | - | - |
| 1777971069 | 12.78° C | 61% | - | 0 mm | - | - | - |
| 1777970766 | 12.78° C | 61% | - | 0 mm | - | - | - |
| 1777970464 | 12.22° C | 65% | - | 0 mm | - | - | - |
| 1777970161 | 11.67° C | 65% | - | 0 mm | - | - | - |
| 1777969857 | 11.67° C | 65% | - | 0 mm | - | - | - |
| 1777969553 | 11.67° C | 66% | - | 0 mm | - | - | - |
| 1777969250 | 12.22° C | 65% | - | 0 mm | - | - | - |
| 1777968947 | 12.22° C | 66% | - | 0 mm | - | - | - |
| 1777968644 | 12.22° C | 66% | - | 0 mm | - | - | - |
| 1777968340 | 12.22° C | 66% | - | 0 mm | - | - | - |
| 1777968037 | 12.22° C | 66% | - | 0 mm | - | - | - |
| 1777967733 | 12.22° C | 66% | - | 0 mm | - | - | - |
| 1777967430 | 12.22° C | 67% | - | 0 mm | - | - | - |
| 1777967127 | 12.22° C | 66% | - | 0 mm | - | - | - |
| 1777966824 | 12.22° C | 65% | - | 0 mm | - | - | - |
| 1777966521 | 12.78° C | 64% | - | 0 mm | - | - | - |
| 1777966220 | 12.78° C | 64% | - | 0 mm | - | - | - |
| 1777965915 | 12.78° C | 63% | - | 0 mm | - | - | - |
| 1777965611 | 12.78° C | 63% | - | 0 mm | - | - | - |
| 1777965307 | 13.33° C | 61% | - | 0 mm | - | - | - |
| 1777965005 | 12.78° C | 65% | - | 0 mm | - | - | - |
* Rain latest hour (hover to see other rain measurements)
** Current wind speed in m/s (hover to see current wind gust speed)